createdAt,value
2023-02-24T00:01:25.063Z,5.36
2023-02-24T00:03:57.489Z,5.41
2023-02-24T00:06:37.474Z,5.44
2023-02-24T00:09:12.062Z,5.31
2023-02-24T00:11:49.005Z,5.34
2023-02-24T00:14:19.850Z,5.28
2023-02-24T00:16:50.796Z,5.20
2023-02-24T00:19:24.034Z,4.91
2023-02-24T00:21:56.219Z,5.08
2023-02-24T00:24:26.424Z,4.93
2023-02-24T00:27:00.730Z,5.20
2023-02-24T00:29:32.628Z,5.21
2023-02-24T00:32:08.519Z,5.29
2023-02-24T00:34:40.425Z,5.30
2023-02-24T00:37:10.680Z,5.43
2023-02-24T00:39:41.969Z,5.32
2023-02-24T00:42:17.420Z,5.28
2023-02-24T00:44:49.860Z,5.17
2023-02-24T00:47:20.596Z,5.34
2023-02-24T00:49:51.396Z,5.31
2023-02-24T00:52:23.641Z,5.11
2023-02-24T00:54:53.669Z,5.31
2023-02-24T00:57:27.084Z,5.28
2023-02-24T00:59:59.375Z,5.30
2023-02-24T01:02:29.985Z,5.33
2023-02-24T01:05:01.307Z,5.18
2023-02-24T01:07:31.272Z,5.23
2023-02-24T01:10:01.777Z,5.22
2023-02-24T01:12:50.003Z,5.17
2023-02-24T01:15:22.263Z,5.15
2023-02-24T01:17:52.427Z,5.17
2023-02-24T01:20:22.776Z,5.13
2023-02-24T01:22:57.771Z,5.09
2023-02-24T01:25:27.978Z,5.08
2023-02-24T01:28:00.614Z,5.02
2023-02-24T01:30:31.432Z,5.00
2023-02-24T01:33:02.000Z,5.01
2023-02-24T01:35:35.178Z,5.01
2023-02-24T01:38:05.995Z,5.01
2023-02-24T01:40:38.424Z,4.87
2023-02-24T01:43:13.818Z,5.05
2023-02-24T01:45:44.211Z,5.04
2023-02-24T01:48:17.416Z,4.97
2023-02-24T01:50:48.603Z,4.95
2023-02-24T01:53:18.723Z,5.03
2023-02-24T01:55:50.953Z,5.10
2023-02-24T01:58:28.165Z,5.15
2023-02-24T02:00:58.916Z,5.14
2023-02-24T02:03:32.748Z,5.09
2023-02-24T02:06:11.271Z,5.07
2023-02-24T02:08:43.447Z,5.10
2023-02-24T02:11:20.577Z,5.01
2023-02-24T02:13:55.289Z,5.03
2023-02-24T02:16:56.158Z,5.08
2023-02-24T02:19:57.393Z,5.10
2023-02-24T02:23:02.357Z,5.01
2023-02-24T02:25:51.625Z,4.88
2023-02-24T02:28:54.152Z,4.90
2023-02-24T02:31:51.966Z,4.89
2023-02-24T02:34:35.912Z,4.72
2023-02-24T02:37:14.852Z,4.90
2023-02-24T02:39:58.982Z,4.83
2023-02-24T02:42:32.931Z,4.89
2023-02-24T02:45:11.862Z,4.87
2023-02-24T02:47:48.480Z,4.69
2023-02-24T02:50:27.541Z,4.73
2023-02-24T02:53:03.240Z,4.65
2023-02-24T02:55:41.871Z,4.68
2023-02-24T02:58:17.593Z,4.62
2023-02-24T03:01:02.069Z,4.82
2023-02-24T03:03:36.297Z,4.80
2023-02-24T03:06:17.257Z,4.74
2023-02-24T03:08:55.685Z,4.56
2023-02-24T03:11:30.018Z,4.69
2023-02-24T03:14:03.210Z,4.46
2023-02-24T03:16:36.315Z,4.69
2023-02-24T03:19:11.305Z,4.63
2023-02-24T03:21:47.269Z,4.41
2023-02-24T03:24:18.309Z,4.54
2023-02-24T03:26:56.384Z,4.64
2023-02-24T03:29:36.839Z,4.42
2023-02-24T03:32:12.522Z,4.56
2023-02-24T03:34:52.174Z,4.56
2023-02-24T03:37:30.458Z,4.36
2023-02-24T03:40:08.165Z,4.42
2023-02-24T03:42:40.348Z,4.33
2023-02-24T03:45:14.834Z,4.53
2023-02-24T03:47:46.973Z,4.62
2023-02-24T03:50:20.267Z,4.56
2023-02-24T03:53:09.774Z,4.56
2023-02-24T03:55:48.661Z,4.64
2023-02-24T03:58:31.265Z,4.60
2023-02-24T04:01:10.193Z,4.47
2023-02-24T04:03:52.720Z,4.60
2023-02-24T04:06:39.278Z,4.52
2023-02-24T04:09:20.322Z,4.53
2023-02-24T04:12:14.508Z,4.47
2023-02-24T04:14:54.081Z,4.49
2023-02-24T04:17:32.924Z,4.51
2023-02-24T04:20:13.691Z,4.52
2023-02-24T04:22:51.723Z,4.53
2023-02-24T04:25:27.153Z,4.54
2023-02-24T04:28:03.211Z,4.49
2023-02-24T04:30:37.259Z,4.53
2023-02-24T04:33:10.267Z,4.52
2023-02-24T04:35:40.804Z,4.49
2023-02-24T04:38:11.342Z,4.52
2023-02-24T04:40:45.463Z,4.48
2023-02-24T04:43:15.736Z,4.51
2023-02-24T04:45:45.907Z,4.49
2023-02-24T04:48:15.955Z,4.46
2023-02-24T04:50:46.852Z,4.33
2023-02-24T04:53:19.230Z,4.58
2023-02-24T04:55:52.516Z,4.54
2023-02-24T04:58:27.606Z,4.49
2023-02-24T05:00:58.780Z,4.54
2023-02-24T05:03:30.750Z,4.54
2023-02-24T05:06:03.459Z,4.51
2023-02-24T05:08:34.184Z,4.54
2023-02-24T05:11:07.281Z,4.57
2023-02-24T05:13:37.880Z,4.58
2023-02-24T05:16:12.850Z,4.56
2023-02-24T05:18:44.876Z,4.35
2023-02-24T05:21:38.386Z,4.53
2023-02-24T05:24:11.367Z,4.48
2023-02-24T05:29:46.935Z,4.58
2023-02-24T05:32:17.497Z,4.53
2023-02-24T05:34:47.563Z,4.60
2023-02-24T05:37:17.511Z,4.61
2023-02-24T05:39:47.526Z,4.63
2023-02-24T05:42:20.019Z,4.62
2023-02-24T05:44:50.566Z,4.58
2023-02-24T05:47:21.401Z,4.59
2023-02-24T05:49:54.372Z,4.63
2023-02-24T05:52:24.278Z,4.62
2023-02-24T05:54:55.198Z,4.60
2023-02-24T05:57:33.307Z,4.60
2023-02-24T06:00:15.947Z,4.58
2023-02-24T06:02:50.591Z,4.53
2023-02-24T06:05:29.105Z,4.55
2023-02-24T06:08:05.018Z,4.59
2023-02-24T06:10:36.475Z,4.57
2023-02-24T06:13:13.503Z,4.54
2023-02-24T06:15:50.349Z,4.59
2023-02-24T06:18:21.582Z,4.58
2023-02-24T06:20:54.076Z,4.59
2023-02-24T06:23:26.805Z,4.52
2023-02-24T06:25:57.923Z,4.65
2023-02-24T06:28:31.912Z,4.64
2023-02-24T06:31:06.895Z,4.66
2023-02-24T06:33:38.186Z,4.67
2023-02-24T06:36:09.293Z,5.09
2023-02-24T06:38:40.239Z,5.43
2023-02-24T06:41:11.036Z,5.70
2023-02-24T06:43:48.012Z,5.53
2023-02-24T06:46:19.180Z,5.28
2023-02-24T06:48:49.387Z,5.06
2023-02-24T06:51:19.789Z,4.91
2023-02-24T06:53:50.492Z,4.82
2023-02-24T06:56:20.887Z,4.81
2023-02-24T06:58:55.470Z,4.79
2023-02-24T07:01:29.241Z,4.70
2023-02-24T07:04:18.005Z,4.76
2023-02-24T07:06:52.419Z,4.69
2023-02-24T07:09:25.370Z,4.75
2023-02-24T07:11:57.005Z,4.75
2023-02-24T07:14:31.761Z,4.75
2023-02-24T07:17:02.292Z,4.77
2023-02-24T07:19:34.878Z,4.66
2023-02-24T07:22:06.282Z,4.70
2023-02-24T07:24:40.764Z,4.73
2023-02-24T07:27:22.664Z,4.74
2023-02-24T07:29:55.340Z,4.75
2023-02-24T07:32:28.211Z,4.79
2023-02-24T07:34:59.650Z,4.80
2023-02-24T07:37:31.849Z,4.82
2023-02-24T07:40:02.541Z,4.83
2023-02-24T07:42:35.486Z,4.83
2023-02-24T07:45:13.786Z,4.81
2023-02-24T07:47:44.117Z,4.82
2023-02-24T07:50:18.628Z,4.77
2023-02-24T07:52:49.101Z,4.77
2023-02-24T07:55:19.532Z,4.71
2023-02-24T07:57:51.831Z,4.83
2023-02-24T08:00:28.399Z,4.85
2023-02-24T08:03:00.635Z,4.88
2023-02-24T08:05:30.698Z,4.89
2023-02-24T08:08:00.678Z,4.85
2023-02-24T08:10:36.966Z,4.73
2023-02-24T08:13:07.171Z,4.79
2023-02-24T08:15:39.672Z,4.78
2023-02-24T08:18:09.610Z,4.82
2023-02-24T08:20:52.489Z,4.83
2023-02-24T08:23:23.613Z,4.77
2023-02-24T08:25:54.561Z,4.86
2023-02-24T08:28:27.020Z,4.86
2023-02-24T08:30:59.608Z,4.64
2023-02-24T08:33:30.664Z,4.84
2023-02-24T08:36:03.689Z,4.79
2023-02-24T08:38:52.259Z,4.73
2023-02-24T08:41:44.106Z,4.70
2023-02-24T08:44:19.008Z,4.52
2023-02-24T08:46:54.552Z,4.48
2023-02-24T08:49:25.900Z,4.34
2023-02-24T08:51:55.782Z,4.17
2023-02-24T08:54:27.908Z,4.06
2023-02-24T08:57:08.240Z,4.07
2023-02-24T08:59:49.880Z,4.03
2023-02-24T09:02:27.600Z,3.91
2023-02-24T09:05:00.061Z,4.09
2023-02-24T09:07:35.513Z,4.14
2023-02-24T09:10:11.640Z,4.18
2023-02-24T09:12:42.605Z,4.14
2023-02-24T09:15:15.483Z,4.09
2023-02-24T09:18:07.315Z,4.16
2023-02-24T09:20:49.905Z,4.21
2023-02-24T09:23:30.041Z,4.14
2023-02-24T09:26:11.248Z,4.16
2023-02-24T09:28:48.828Z,4.05
2023-02-24T09:31:20.230Z,3.93
2023-02-24T09:33:53.757Z,3.97
2023-02-24T09:36:28.196Z,3.96
2023-02-24T09:39:15.095Z,3.70
2023-02-24T09:41:57.042Z,3.91
2023-02-24T09:44:33.415Z,3.92
2023-02-24T09:47:14.112Z,4.00
2023-02-24T09:49:56.322Z,4.13
2023-02-24T09:52:39.977Z,4.20
2023-02-24T09:55:31.043Z,4.20
2023-02-24T09:58:22.420Z,4.12
2023-02-24T10:01:21.115Z,4.09
2023-02-24T10:04:14.872Z,4.03
2023-02-24T10:06:58.324Z,3.89
2023-02-24T10:09:34.691Z,3.93
2023-02-24T10:12:11.770Z,3.97
2023-02-24T10:14:53.790Z,3.80
2023-02-24T10:17:30.812Z,3.87
2023-02-24T10:20:14.047Z,3.85
2023-02-24T10:22:55.260Z,3.83
2023-02-24T10:25:36.437Z,3.70
2023-02-24T10:28:15.338Z,3.64
2023-02-24T10:31:04.164Z,3.59
2023-02-24T10:33:39.220Z,3.67
2023-02-24T10:36:12.439Z,3.71
2023-02-24T10:38:45.686Z,3.89
2023-02-24T10:41:17.281Z,3.98
2023-02-24T10:43:57.433Z,4.03
2023-02-24T10:46:42.743Z,4.03
2023-02-24T10:49:16.940Z,4.06
2023-02-24T10:51:55.880Z,4.06
2023-02-24T10:54:53.127Z,3.98
2023-02-24T10:57:42.490Z,3.98
2023-02-24T11:00:51.917Z,3.97
2023-02-24T11:03:36.366Z,3.95
2023-02-24T11:06:20.371Z,3.99
2023-02-24T11:09:19.130Z,4.01
2023-02-24T11:12:04.665Z,4.10
2023-02-24T11:14:48.947Z,4.12
2023-02-24T11:17:27.217Z,4.14
2023-02-24T11:20:10.906Z,4.15
2023-02-24T11:22:44.419Z,4.20
2023-02-24T11:25:25.963Z,4.24
2023-02-24T11:27:59.760Z,4.27
2023-02-24T11:30:42.675Z,4.32
2023-02-24T11:33:22.986Z,4.36
2023-02-24T11:36:05.386Z,4.33
2023-02-24T11:38:43.735Z,4.31
2023-02-24T11:41:22.458Z,4.25
2023-02-24T11:44:02.892Z,4.23
2023-02-24T11:46:40.434Z,4.23
2023-02-24T11:49:24.977Z,4.20
2023-02-24T11:51:55.978Z,4.13
2023-02-24T11:54:28.496Z,4.07
2023-02-24T11:57:00.962Z,3.99
2023-02-24T11:59:41.159Z,4.04
2023-02-24T12:02:22.094Z,4.07
2023-02-24T12:04:59.889Z,4.09
2023-02-24T12:07:35.859Z,4.07
2023-02-24T12:10:16.774Z,4.02
2023-02-24T12:12:53.944Z,3.98
2023-02-24T12:15:31.375Z,4.04
2023-02-24T12:18:09.098Z,4.03
2023-02-24T12:20:43.266Z,4.10
2023-02-24T12:23:18.701Z,4.04
2023-02-24T12:25:59.406Z,4.00
2023-02-24T12:28:48.844Z,4.01
2023-02-24T12:31:30.611Z,4.00
2023-02-24T12:34:15.717Z,3.93
2023-02-24T12:37:09.462Z,3.97
2023-02-24T12:39:50.406Z,3.87
2023-02-24T12:42:29.106Z,3.85
2023-02-24T12:45:06.740Z,3.80
2023-02-24T12:48:01.273Z,3.81
2023-02-24T12:50:47.232Z,3.75
2023-02-24T12:53:25.976Z,3.63
2023-02-24T12:56:06.415Z,3.64
2023-02-24T12:58:40.072Z,3.61
2023-02-24T13:01:18.312Z,3.66
2023-02-24T13:04:10.868Z,3.67
2023-02-24T13:06:55.922Z,3.56
2023-02-24T13:09:38.646Z,3.64
2023-02-24T13:12:18.577Z,3.61
2023-02-24T13:14:50.061Z,3.64
2023-02-24T13:17:23.472Z,3.68
2023-02-24T13:19:57.716Z,3.64
2023-02-24T13:25:34.080Z,3.73
2023-02-24T13:28:06.108Z,3.75
2023-02-24T13:30:41.076Z,3.71
2023-02-24T13:33:27.681Z,3.84
2023-02-24T13:36:13.670Z,3.83
2023-02-24T13:38:46.011Z,3.80
2023-02-24T13:41:38.749Z,3.78
2023-02-24T13:44:26.333Z,3.95
2023-02-24T13:47:16.855Z,3.83
2023-02-24T13:49:59.162Z,4.09
2023-02-24T13:52:47.031Z,3.94
2023-02-24T13:55:44.241Z,4.11
2023-02-24T13:58:44.124Z,4.21
2023-02-24T14:01:16.316Z,4.22
2023-02-24T14:03:49.916Z,4.24
2023-02-24T14:06:27.494Z,4.27
2023-02-24T14:09:03.576Z,4.31
2023-02-24T14:11:38.785Z,4.37
2023-02-24T14:14:09.048Z,4.37
2023-02-24T14:16:41.970Z,4.41
2023-02-24T14:19:17.429Z,4.44
2023-02-24T14:21:54.999Z,4.50
2023-02-24T14:24:32.017Z,4.57
2023-02-24T14:27:04.340Z,4.64
2023-02-24T14:29:44.207Z,4.69
2023-02-24T14:32:22.821Z,4.69
2023-02-24T14:34:53.767Z,4.70
2023-02-24T14:37:26.897Z,4.63
2023-02-24T14:40:05.993Z,4.55
2023-02-24T14:42:36.373Z,4.60
2023-02-24T14:45:18.928Z,4.60
2023-02-24T14:47:49.069Z,4.64
2023-02-24T14:50:21.442Z,4.71
2023-02-24T14:52:55.954Z,4.73
2023-02-24T14:55:32.433Z,4.78
2023-02-24T14:58:09.449Z,4.66
2023-02-24T15:00:47.193Z,4.84
2023-02-24T15:03:29.882Z,4.93
2023-02-24T15:06:14.043Z,4.86
2023-02-24T15:09:08.214Z,4.80
2023-02-24T15:11:49.642Z,4.76
2023-02-24T15:14:42.431Z,4.80
2023-02-24T15:17:23.939Z,4.66
2023-02-24T15:20:06.637Z,4.80
2023-02-24T15:22:43.344Z,4.62
2023-02-24T15:25:37.161Z,4.68
2023-02-24T15:28:33.816Z,4.53
2023-02-24T15:31:11.766Z,4.84
2023-02-24T15:33:43.899Z,4.91
2023-02-24T15:36:19.389Z,4.84
2023-02-24T15:38:58.875Z,4.75
2023-02-24T15:44:41.004Z,4.97
2023-02-24T15:47:29.064Z,4.98
2023-02-24T15:50:08.656Z,4.96
2023-02-24T15:52:51.833Z,4.90
2023-02-24T15:55:29.346Z,4.84
2023-02-24T15:58:11.945Z,4.76
2023-02-24T16:00:47.851Z,4.88
2023-02-24T16:03:26.861Z,4.90
2023-02-24T16:06:00.413Z,4.89
2023-02-24T16:08:33.602Z,4.89
2023-02-24T16:11:11.074Z,4.86
2023-02-24T16:13:50.981Z,4.87
2023-02-24T16:16:39.059Z,4.85
2023-02-24T16:19:11.568Z,4.86
2023-02-24T16:21:42.621Z,4.71
2023-02-24T16:24:20.020Z,4.88
2023-02-24T16:26:56.868Z,4.89
2023-02-24T16:29:28.794Z,4.94
2023-02-24T16:32:06.104Z,4.96
2023-02-24T16:34:37.454Z,4.81
2023-02-24T16:37:15.283Z,4.96
2023-02-24T16:39:51.178Z,4.98
2023-02-24T16:42:29.323Z,5.01
2023-02-24T16:45:17.095Z,5.02
2023-02-24T16:47:52.955Z,4.84
2023-02-24T16:50:30.416Z,4.97
2023-02-24T16:53:02.636Z,4.91
2023-02-24T16:55:41.146Z,4.96
2023-02-24T16:58:13.049Z,4.97
2023-02-24T17:00:46.497Z,5.02
2023-02-24T17:03:23.715Z,5.08
2023-02-24T17:05:54.167Z,5.07
2023-02-24T17:08:25.422Z,5.08
2023-02-24T17:10:55.493Z,5.12
2023-02-24T17:13:25.679Z,5.19
2023-02-24T17:15:57.500Z,5.19
2023-02-24T17:18:30.185Z,5.19
2023-02-24T17:21:00.314Z,5.19
2023-02-24T17:23:30.325Z,5.18
2023-02-24T17:26:03.175Z,5.21
2023-02-24T17:28:33.548Z,5.20
2023-02-24T17:31:06.348Z,5.24
2023-02-24T17:33:43.329Z,5.21
2023-02-24T17:36:13.443Z,5.19
2023-02-24T17:38:43.248Z,5.21
2023-02-24T17:41:13.082Z,5.18
2023-02-24T17:43:43.061Z,5.13
2023-02-24T17:46:12.895Z,5.09
2023-02-24T17:48:45.461Z,5.07
2023-02-24T17:51:16.878Z,5.07
2023-02-24T17:53:48.337Z,5.00
2023-02-24T17:56:21.043Z,5.00
2023-02-24T17:58:51.914Z,4.90
2023-02-24T18:01:23.849Z,4.89
2023-02-24T18:03:58.124Z,4.89
2023-02-24T18:06:27.832Z,4.90
2023-02-24T18:08:57.823Z,4.94
2023-02-24T18:11:27.724Z,4.94
2023-02-24T18:14:01.442Z,4.94
2023-02-24T18:16:31.615Z,4.91
2023-02-24T18:19:05.311Z,4.89
2023-02-24T18:21:35.616Z,4.91
2023-02-24T18:24:06.024Z,4.79
2023-02-24T18:26:36.106Z,4.93
2023-02-24T18:29:08.796Z,4.95
2023-02-24T18:31:39.130Z,4.99
2023-02-24T18:34:11.886Z,5.01
2023-02-24T18:36:41.885Z,5.08
2023-02-24T18:39:15.011Z,5.13
2023-02-24T18:41:45.675Z,5.18
2023-02-24T18:44:15.962Z,5.25
2023-02-24T18:46:48.222Z,5.25
2023-02-24T18:49:20.995Z,5.22
2023-02-24T18:51:51.533Z,5.22
2023-02-24T18:54:21.479Z,5.24
2023-02-24T18:56:51.617Z,5.24
2023-02-24T18:59:21.653Z,5.26
2023-02-24T19:01:51.611Z,5.27
2023-02-24T19:04:24.308Z,5.27
2023-02-24T19:06:54.734Z,5.30
2023-02-24T19:09:24.783Z,5.28
2023-02-24T19:11:55.006Z,5.26
2023-02-24T19:14:25.265Z,5.22
2023-02-24T19:16:55.292Z,5.25
2023-02-24T19:19:27.925Z,5.23
2023-02-24T19:21:57.750Z,5.17
2023-02-24T19:24:28.152Z,5.09
2023-02-24T19:26:59.094Z,4.88
2023-02-24T19:29:29.139Z,4.86
2023-02-24T19:31:59.478Z,4.80
2023-02-24T19:34:32.141Z,4.63
2023-02-24T19:37:02.166Z,4.60
2023-02-24T19:39:32.159Z,4.56
2023-02-24T19:42:02.109Z,4.57
2023-02-24T19:44:32.105Z,4.60
2023-02-24T19:47:01.893Z,4.60
2023-02-24T19:49:34.394Z,4.69
2023-02-24T19:52:04.344Z,4.74
2023-02-24T19:54:34.454Z,4.72
2023-02-24T19:57:08.816Z,4.69
2023-02-24T19:59:39.864Z,4.68
2023-02-24T20:02:10.435Z,4.64
2023-02-24T20:04:43.214Z,4.58
2023-02-24T20:07:13.648Z,4.52
2023-02-24T20:09:45.444Z,4.44
2023-02-24T20:12:17.405Z,4.43
2023-02-24T20:14:47.307Z,4.48
2023-02-24T20:17:17.741Z,4.53
2023-02-24T20:19:50.354Z,4.57
2023-02-24T20:22:20.320Z,4.65
2023-02-24T20:24:50.499Z,4.61
2023-02-24T20:27:20.680Z,4.74
2023-02-24T20:29:53.406Z,4.74
2023-02-24T20:32:23.661Z,4.71
2023-02-24T20:34:56.844Z,4.67
2023-02-24T20:37:28.540Z,4.64
2023-02-24T20:39:58.441Z,4.56
2023-02-24T20:42:28.401Z,4.70
2023-02-24T20:44:58.292Z,4.68
2023-02-24T20:47:28.186Z,4.74
2023-02-24T20:50:00.784Z,4.77
2023-02-24T20:52:34.325Z,4.79
2023-02-24T20:55:04.401Z,4.78
2023-02-24T20:57:34.334Z,4.81
2023-02-24T21:00:07.994Z,4.78
2023-02-24T21:02:40.391Z,4.77
2023-02-24T21:05:22.169Z,4.71
2023-02-24T21:07:52.940Z,4.77
2023-02-24T21:10:26.047Z,4.78
2023-02-24T21:12:56.210Z,4.82
2023-02-24T21:15:26.290Z,4.81
2023-02-24T21:17:56.194Z,4.82
2023-02-24T21:20:28.681Z,4.77
2023-02-24T21:22:58.624Z,4.81
2023-02-24T21:25:28.539Z,4.81
2023-02-24T21:27:58.652Z,4.84
2023-02-24T21:30:29.181Z,4.86
2023-02-24T21:33:00.058Z,4.82
2023-02-24T21:35:32.761Z,4.73
2023-02-24T21:38:03.112Z,4.69
2023-02-24T21:40:32.902Z,4.65
2023-02-24T21:43:02.813Z,4.65
2023-02-24T21:45:33.206Z,4.66
2023-02-24T21:48:03.045Z,4.66
2023-02-24T21:50:37.023Z,4.67
2023-02-24T21:53:07.025Z,4.70
2023-02-24T21:55:38.696Z,4.63
2023-02-24T21:58:08.819Z,4.70
2023-02-24T22:00:38.694Z,4.69
2023-02-24T22:03:08.736Z,4.71
2023-02-24T22:05:41.279Z,4.66
2023-02-24T22:08:11.233Z,4.62
2023-02-24T22:10:41.090Z,4.59
2023-02-24T22:13:10.922Z,4.48
2023-02-24T22:15:41.756Z,4.48
2023-02-24T22:18:11.672Z,4.46
2023-02-24T22:20:44.088Z,4.43
2023-02-24T22:23:13.922Z,4.45
2023-02-24T22:25:43.865Z,4.49
2023-02-24T22:28:13.632Z,4.53
2023-02-24T22:30:43.571Z,4.57
2023-02-24T22:33:13.673Z,4.58
2023-02-24T22:35:46.092Z,4.54
2023-02-24T22:38:16.486Z,4.55
2023-02-24T22:40:46.459Z,4.56
2023-02-24T22:43:16.374Z,4.54
2023-02-24T22:45:46.347Z,4.55
2023-02-24T22:48:16.318Z,4.60
2023-02-24T22:50:48.738Z,4.62
2023-02-24T22:53:19.100Z,4.64
2023-02-24T22:55:51.154Z,4.60
2023-02-24T22:58:22.283Z,4.56
2023-02-24T23:00:52.921Z,4.57
2023-02-24T23:03:25.741Z,4.55
2023-02-24T23:06:03.599Z,4.50
2023-02-24T23:08:35.356Z,4.47
2023-02-24T23:11:10.958Z,4.46
2023-02-24T23:13:42.051Z,4.46
2023-02-24T23:16:14.304Z,4.52
2023-02-24T23:18:48.525Z,4.56
2023-02-24T23:21:22.359Z,4.56
2023-02-24T23:24:02.177Z,4.51
2023-02-24T23:26:33.233Z,4.60
2023-02-24T23:29:03.674Z,4.60
2023-02-24T23:31:34.036Z,4.63
2023-02-24T23:34:07.328Z,4.65
2023-02-24T23:36:43.616Z,4.63
2023-02-24T23:39:15.766Z,4.66
2023-02-24T23:41:46.143Z,4.75
2023-02-24T23:44:16.073Z,4.74
2023-02-24T23:46:46.688Z,4.75
2023-02-24T23:49:16.688Z,4.73
2023-02-24T23:51:49.294Z,4.73
2023-02-24T23:54:20.415Z,4.71
2023-02-24T23:56:50.552Z,4.68
2023-02-24T23:59:20.466Z,4.69
